Time;durP1;ratioP1;P1;durP2;ratioP2;P2;SDS_P1;SDS_P2;PMS_P1;PMS_P2;Temp;Humidity;BMP_temperature;BMP_pressure;BME280_temperature;BME280_humidity;BME280_pressure;Samples;Min_cycle;Max_cycle;Signal;HPM_P1;HPM_P2
2023/07/08 00:02:11;;;;;;;5.25;2.70;;;;;;;;;;5004283;28;20028;-65
2023/07/08 00:04:37;;;;;;;4.65;2.15;;;;;;;;;;5010632;28;20028;-65
2023/07/08 00:07:02;;;;;;;5.50;2.00;;;;;;;;;;5015141;28;20033;-66
2023/07/08 00:09:28;;;;;;;3.72;2.10;;;;;;;;;;5015080;28;20055;-66
2023/07/08 00:11:53;;;;;;;4.13;1.98;;;;;;;;;;5006997;28;20129;-65
2023/07/08 00:14:18;;;;;;;3.83;2.17;;;;;;;;;;5009650;28;20489;-66
2023/07/08 00:16:44;;;;;;;3.42;2.08;;;;;;;;;;5014587;28;20041;-66
2023/07/08 00:19:10;;;;;;;3.08;2.00;;;;;;;;;;5014300;28;20100;-66
2023/07/08 00:21:35;;;;;;;3.40;2.15;;;;;;;;;;5012831;28;20026;-65
2023/07/08 00:24:01;;;;;;;4.32;2.42;;;;;;;;;;5003027;28;20026;-65
2023/07/08 00:26:29;;;;;;;4.90;2.47;;;;;;;;;;5017581;28;20044;-65
2023/07/08 00:28:55;;;;;;;4.47;2.30;;;;;;;;;;5013361;28;20756;-66
2023/07/08 00:31:25;;;;;;;4.75;2.22;;;;;;;;;;5018718;28;20060;-66
2023/07/08 00:33:55;;;;;;;3.50;2.30;;;;;;;;;;5009603;28;20056;-66
2023/07/08 00:36:20;;;;;;;3.97;2.38;;;;;;;;;;5008311;28;20017;-66
2023/07/08 00:38:46;;;;;;;12.48;2.65;;;;;;;;;;5012245;28;20501;-66
2023/07/08 00:41:18;;;;;;;4.25;2.20;;;;;;;;;;5011738;28;20033;-66
2023/07/08 00:43:49;;;;;;;4.00;2.13;;;;;;;;;;5005642;28;20161;-65
2023/07/08 00:46:27;;;;;;;3.20;2.10;;;;;;;;;;5006122;28;20034;-65
2023/07/08 00:48:57;;;;;;;3.20;2.20;;;;;;;;;;5011047;28;20073;-66
2023/07/08 00:51:23;;;;;;;5.32;2.33;;;;;;;;;;5013525;28;20020;-65
2023/07/08 00:53:49;;;;;;;4.20;2.00;;;;;;;;;;5012624;28;20033;-65
2023/07/08 00:56:20;;;;;;;6.63;2.78;;;;;;;;;;5007210;28;20294;-66
2023/07/08 00:58:55;;;;;;;3.58;2.15;;;;;;;;;;5013954;28;20038;-65
2023/07/08 01:01:21;;;;;;;2.67;1.80;;;;;;;;;;5016255;28;20032;-65
2023/07/08 01:03:52;;;;;;;3.10;2.20;;;;;;;;;;5014167;28;20029;-65
2023/07/08 01:06:20;;;;;;;6.35;2.25;;;;;;;;;;5010420;28;20145;-65
2023/07/08 01:08:50;;;;;;;3.38;1.90;;;;;;;;;;5004993;28;20525;-65
2023/07/08 01:11:15;;;;;;;5.75;2.38;;;;;;;;;;5017465;28;20025;-65
2023/07/08 01:13:43;;;;;;;4.30;2.03;;;;;;;;;;5015756;28;20413;-65
2023/07/08 01:16:09;;;;;;;6.38;1.90;;;;;;;;;;5004131;28;20049;-66
2023/07/08 01:18:36;;;;;;;3.10;2.10;;;;;;;;;;5003719;28;20532;-65
2023/07/08 01:21:06;;;;;;;5.10;2.00;;;;;;;;;;5015416;28;20025;-65
2023/07/08 01:23:32;;;;;;;3.93;2.10;;;;;;;;;;5019441;28;20032;-65
2023/07/08 01:25:59;;;;;;;3.53;2.00;;;;;;;;;;5018825;28;20388;-65
2023/07/08 01:28:26;;;;;;;3.75;2.30;;;;;;;;;;5008878;28;20029;-65
2023/07/08 01:30:52;;;;;;;4.50;2.40;;;;;;;;;;5017609;28;20025;-65
2023/07/08 01:33:21;;;;;;;6.65;2.30;;;;;;;;;;5016463;28;20033;-65
2023/07/08 01:35:49;;;;;;;4.30;2.00;;;;;;;;;;5018491;28;20079;-65
2023/07/08 01:38:18;;;;;;;4.72;2.20;;;;;;;;;;5012411;28;20029;-66
2023/07/08 01:40:55;;;;;;;5.20;2.30;;;;;;;;;;5009605;28;20024;-65
2023/07/08 01:43:20;;;;;;;3.83;2.33;;;;;;;;;;5010737;28;20026;-65
2023/07/08 01:45:48;;;;;;;4.47;2.42;;;;;;;;;;5017557;28;20429;-65
2023/07/08 01:48:16;;;;;;;2.67;1.80;;;;;;;;;;5014008;28;20880;-65
2023/07/08 01:50:46;;;;;;;3.15;1.98;;;;;;;;;;5011709;28;20030;-65
2023/07/08 01:53:19;;;;;;;4.50;2.28;;;;;;;;;;5009622;28;20041;-65
2023/07/08 01:55:44;;;;;;;4.15;2.25;;;;;;;;;;5008738;28;20025;-65
2023/07/08 01:58:10;;;;;;;3.58;2.38;;;;;;;;;;5019151;28;20452;-65
2023/07/08 02:00:35;;;;;;;4.07;2.30;;;;;;;;;;5016677;28;20069;-65
2023/07/08 02:03:01;;;;;;;4.95;2.40;;;;;;;;;;5010353;28;20478;-65
2023/07/08 02:05:26;;;;;;;3.70;2.42;;;;;;;;;;5014030;28;20125;-65
2023/07/08 02:07:51;;;;;;;3.03;2.03;;;;;;;;;;5015173;28;20367;-65
2023/07/08 02:10:17;;;;;;;5.60;2.20;;;;;;;;;;5017337;28;20053;-65
2023/07/08 02:12:42;;;;;;;5.05;2.10;;;;;;;;;;5010955;28;20037;-65
2023/07/08 02:15:09;;;;;;;4.57;2.60;;;;;;;;;;5011580;28;20017;-66
2023/07/08 02:17:35;;;;;;;5.43;3.40;;;;;;;;;;5013130;28;20482;-67
2023/07/08 02:20:00;;;;;;;4.47;2.65;;;;;;;;;;5017953;28;20052;-67
2023/07/08 02:22:26;;;;;;;4.57;2.00;;;;;;;;;;5010209;28;20025;-66
2023/07/08 02:24:51;;;;;;;4.28;2.20;;;;;;;;;;5009704;28;20640;-66
2023/07/08 02:27:16;;;;;;;4.13;2.47;;;;;;;;;;5018966;28;20028;-67
2023/07/08 02:29:42;;;;;;;3.58;2.25;;;;;;;;;;5019828;28;20525;-65
2023/07/08 02:32:09;;;;;;;4.30;2.65;;;;;;;;;;5020460;28;20035;-66
2023/07/08 02:34:35;;;;;;;3.03;2.17;;;;;;;;;;5008974;28;20037;-66
2023/07/08 02:37:00;;;;;;;5.10;2.60;;;;;;;;;;5014960;28;20026;-66
2023/07/08 02:39:26;;;;;;;3.55;1.80;;;;;;;;;;5021650;28;20017;-66
2023/07/08 02:41:51;;;;;;;5.13;2.30;;;;;;;;;;5017832;28;20440;-66
2023/07/08 02:44:17;;;;;;;4.28;2.15;;;;;;;;;;5011393;28;20756;-66
2023/07/08 02:46:42;;;;;;;5.57;2.40;;;;;;;;;;5012560;28;20033;-66
2023/07/08 02:49:07;;;;;;;7.00;3.33;;;;;;;;;;5013386;28;20021;-66
2023/07/08 02:51:33;;;;;;;3.17;2.30;;;;;;;;;;5015690;28;20029;-66
2023/07/08 02:53:58;;;;;;;4.00;3.05;;;;;;;;;;5013028;28;20055;-66
2023/07/08 02:56:26;;;;;;;3.35;2.63;;;;;;;;;;5010465;28;20414;-66
2023/07/08 02:58:51;;;;;;;4.43;2.70;;;;;;;;;;5010397;28;20052;-64
2023/07/08 03:01:17;;;;;;;3.75;2.60;;;;;;;;;;5018753;28;20062;-67
2023/07/08 03:03:44;;;;;;;4.28;2.20;;;;;;;;;;5016870;28;20536;-66
2023/07/08 03:06:10;;;;;;;3.35;2.33;;;;;;;;;;5009594;28;20017;-67
2023/07/08 03:08:35;;;;;;;3.72;2.50;;;;;;;;;;5010275;28;20612;-66
2023/07/08 03:11:03;;;;;;;4.70;2.33;;;;;;;;;;5012572;28;20020;-67
2023/07/08 03:13:29;;;;;;;4.45;2.50;;;;;;;;;;5013210;28;20063;-66
2023/07/08 03:15:55;;;;;;;3.65;2.28;;;;;;;;;;5017827;28;20033;-66
2023/07/08 03:18:23;;;;;;;3.03;2.38;;;;;;;;;;5012699;28;20066;-67
2023/07/08 03:20:49;;;;;;;3.97;2.20;;;;;;;;;;5012796;28;20022;-66
2023/07/08 03:23:14;;;;;;;4.85;2.13;;;;;;;;;;5013976;28;20609;-66
2023/07/08 03:25:40;;;;;;;4.57;2.88;;;;;;;;;;5017599;28;20028;-66
2023/07/08 03:28:08;;;;;;;4.10;2.15;;;;;;;;;;5016439;28;20030;-66
2023/07/08 03:30:34;;;;;;;4.22;2.35;;;;;;;;;;5004297;28;20035;-66
2023/07/08 03:32:59;;;;;;;3.63;2.20;;;;;;;;;;5012386;28;20033;-66
2023/07/08 03:35:25;;;;;;;4.78;2.40;;;;;;;;;;5015305;28;20052;-66
2023/07/08 03:37:51;;;;;;;3.55;2.20;;;;;;;;;;5009909;28;20080;-66
2023/07/08 03:40:17;;;;;;;3.92;2.30;;;;;;;;;;5011751;28;20023;-66
2023/07/08 03:42:42;;;;;;;4.20;2.10;;;;;;;;;;5012775;28;20071;-66
2023/07/08 03:45:08;;;;;;;4.32;2.40;;;;;;;;;;5015651;28;20058;-66
2023/07/08 03:47:34;;;;;;;4.32;2.38;;;;;;;;;;5018485;28;20536;-66
2023/07/08 03:49:59;;;;;;;4.80;2.28;;;;;;;;;;5014260;28;20022;-66
2023/07/08 03:52:25;;;;;;;3.65;2.15;;;;;;;;;;5005049;28;20060;-66
2023/07/08 03:54:50;;;;;;;3.90;2.75;;;;;;;;;;5012147;28;20789;-65
2023/07/08 03:57:15;;;;;;;4.53;2.15;;;;;;;;;;5018129;28;20527;-66
2023/07/08 03:59:41;;;;;;;3.38;2.22;;;;;;;;;;5018224;28;20022;-66
2023/07/08 04:02:11;;;;;;;3.45;2.40;;;;;;;;;;5012582;28;20387;-66
2023/07/08 04:04:37;;;;;;;3.67;2.35;;;;;;;;;;5008412;28;20093;-66
2023/07/08 04:07:04;;;;;;;4.95;2.33;;;;;;;;;;5016850;28;20584;-65
2023/07/08 04:09:29;;;;;;;4.93;2.45;;;;;;;;;;5020548;28;20029;-66
2023/07/08 04:11:55;;;;;;;4.97;2.50;;;;;;;;;;5014020;28;20026;-66
2023/07/08 04:14:21;;;;;;;4.03;2.72;;;;;;;;;;5005133;28;20033;-66
2023/07/08 04:16:58;;;;;;;3.97;2.42;;;;;;;;;;5016771;28;20096;-66
2023/07/08 04:19:24;;;;;;;4.05;2.35;;;;;;;;;;5015293;28;20111;-65
2023/07/08 04:21:49;;;;;;;4.53;2.92;;;;;;;;;;5015015;28;20486;-65
2023/07/08 04:24:17;;;;;;;3.13;1.80;;;;;;;;;;5008332;28;20030;-67
2023/07/08 04:26:46;;;;;;;2.97;1.70;;;;;;;;;;5007925;28;20033;-66
2023/07/08 04:29:17;;;;;;;5.47;2.60;;;;;;;;;;5013665;28;20021;-65
2023/07/08 04:31:42;;;;;;;;;;;;;;;;;;5014865;28;20113;-66
2023/07/08 04:34:09;;;;;;;4.85;2.08;;;;;;;;;;5008263;28;20009;-66
2023/07/08 04:36:34;;;;;;;4.22;2.13;;;;;;;;;;5009083;28;20713;-65
2023/07/08 04:39:02;;;;;;;3.70;2.30;;;;;;;;;;5007415;28;20108;-66
2023/07/08 04:41:27;;;;;;;4.47;2.47;;;;;;;;;;5009150;28;20107;-66
2023/07/08 04:43:53;;;;;;;3.65;2.33;;;;;;;;;;5011088;28;20029;-65
2023/07/08 04:46:38;;;;;;;2.90;2.15;;;;;;;;;;5012160;28;20040;-65
2023/07/08 04:49:05;;;;;;;4.45;2.72;;;;;;;;;;5009461;28;21324;-66
2023/07/08 04:51:31;;;;;;;4.90;2.80;;;;;;;;;;5013131;28;20092;-66
2023/07/08 04:53:56;;;;;;;4.18;1.85;;;;;;;;;;5013073;28;20033;-66
2023/07/08 04:56:23;;;;;;;2.60;1.90;;;;;;;;;;5012910;28;20041;-66
2023/07/08 04:58:49;;;;;;;4.50;2.45;;;;;;;;;;5010737;28;20113;-65
2023/07/08 05:01:14;;;;;;;4.05;2.28;;;;;;;;;;5016668;28;20125;-66
2023/07/08 05:03:39;;;;;;;5.90;1.77;;;;;;;;;;5020481;28;20033;-66
2023/07/08 05:06:05;;;;;;;4.85;2.05;;;;;;;;;;5018429;28;20024;-66
2023/07/08 05:08:30;;;;;;;5.00;2.50;;;;;;;;;;5005920;28;20370;-66
2023/07/08 05:10:56;;;;;;;5.65;2.30;;;;;;;;;;5003496;28;20026;-66
2023/07/08 05:13:22;;;;;;;5.13;2.60;;;;;;;;;;5012710;28;20727;-66
2023/07/08 05:15:48;;;;;;;3.42;2.60;;;;;;;;;;5019807;28;20037;-66
2023/07/08 05:18:14;;;;;;;6.22;2.67;;;;;;;;;;5017536;28;20029;-66
2023/07/08 05:20:41;;;;;;;4.82;2.50;;;;;;;;;;5006456;28;20410;-65
2023/07/08 05:23:06;;;;;;;7.30;2.40;;;;;;;;;;4995315;28;20419;-65
2023/07/08 05:25:32;;;;;;;4.05;2.67;;;;;;;;;;4996553;28;20037;-66
2023/07/08 05:27:58;;;;;;;5.53;2.28;;;;;;;;;;4997801;28;20375;-66
2023/07/08 05:30:24;;;;;;;4.78;2.83;;;;;;;;;;5001009;28;20046;-66
2023/07/08 05:32:49;;;;;;;4.15;2.60;;;;;;;;;;4998122;28;20173;-66
2023/07/08 05:35:15;;;;;;;3.10;2.30;;;;;;;;;;5001099;28;20050;-66
2023/07/08 05:37:44;;;;;;;4.90;2.67;;;;;;;;;;5003365;28;20034;-66
2023/07/08 05:40:10;;;;;;;4.97;2.85;;;;;;;;;;5004209;28;20036;-65
2023/07/08 05:42:36;;;;;;;3.55;2.53;;;;;;;;;;4998624;28;20030;-66
2023/07/08 05:45:02;;;;;;;3.25;2.42;;;;;;;;;;4994930;28;20139;-66
2023/07/08 05:47:27;;;;;;;6.93;2.60;;;;;;;;;;5006135;28;20017;-67
2023/07/08 05:49:52;;;;;;;3.92;3.05;;;;;;;;;;5012847;28;20013;-67
2023/07/08 05:52:18;;;;;;;3.90;2.80;;;;;;;;;;5006850;28;20371;-66
2023/07/08 05:54:43;;;;;;;5.35;2.78;;;;;;;;;;5004659;28;20022;-65
2023/07/08 05:57:11;;;;;;;4.88;2.70;;;;;;;;;;5005853;28;20018;-66
2023/07/08 05:59:38;;;;;;;2.70;1.95;;;;;;;;;;5009315;28;20421;-66
2023/07/08 06:02:04;;;;;;;3.75;2.53;;;;;;;;;;5003020;28;20449;-66
2023/07/08 06:04:30;;;;;;;3.97;2.67;;;;;;;;;;5006986;28;20041;-67
2023/07/08 06:06:56;;;;;;;3.58;2.08;;;;;;;;;;5015181;28;20025;-67
2023/07/08 06:09:21;;;;;;;4.43;2.85;;;;;;;;;;5014803;28;20025;-66
2023/07/08 06:11:47;;;;;;;4.55;3.30;;;;;;;;;;5010703;28;20034;-67
2023/07/08 06:14:12;;;;;;;3.83;2.42;;;;;;;;;;5006478;28;20564;-66
2023/07/08 06:16:38;;;;;;;3.58;2.60;;;;;;;;;;4999190;28;20112;-66
2023/07/08 06:19:03;;;;;;;4.25;2.83;;;;;;;;;;5008100;28;20072;-66
2023/07/08 06:21:28;;;;;;;4.28;3.38;;;;;;;;;;5008148;28;20035;-66
2023/07/08 06:23:54;;;;;;;3.00;2.55;;;;;;;;;;5014083;28;20212;-66
2023/07/08 06:26:19;;;;;;;3.47;2.33;;;;;;;;;;5005699;28;20045;-66
2023/07/08 06:28:44;;;;;;;5.07;3.17;;;;;;;;;;5008522;28;20052;-67
2023/07/08 06:31:10;;;;;;;3.55;2.72;;;;;;;;;;5014621;28;20052;-66
2023/07/08 06:33:35;;;;;;;4.32;2.85;;;;;;;;;;5014825;28;20510;-66
2023/07/08 06:36:01;;;;;;;3.88;2.58;;;;;;;;;;5009225;28;20028;-66
2023/07/08 06:38:26;;;;;;;2.88;2.58;;;;;;;;;;5000614;28;20648;-66
2023/07/08 06:40:51;;;;;;;4.72;2.92;;;;;;;;;;5005333;28;20084;-67
2023/07/08 06:43:17;;;;;;;4.38;2.75;;;;;;;;;;5004888;28;20490;-66
2023/07/08 06:45:43;;;;;;;4.20;2.33;;;;;;;;;;5003969;28;20033;-66
2023/07/08 06:48:09;;;;;;;4.72;3.25;;;;;;;;;;5006212;28;20021;-66
2023/07/08 06:50:34;;;;;;;4.65;2.70;;;;;;;;;;5003436;28;20117;-67
2023/07/08 06:53:00;;;;;;;3.70;2.83;;;;;;;;;;5001520;28;20064;-66
2023/07/08 06:55:25;;;;;;;4.75;2.60;;;;;;;;;;5015102;28;20037;-66
2023/07/08 06:57:51;;;;;;;4.30;3.03;;;;;;;;;;5007957;28;20486;-66
2023/07/08 07:00:17;;;;;;;4.80;3.33;;;;;;;;;;5010116;28;20129;-66
2023/07/08 07:02:43;;;;;;;3.78;3.15;;;;;;;;;;5011249;28;20557;-66
2023/07/08 07:05:09;;;;;;;6.00;3.35;;;;;;;;;;5018468;28;20025;-66
2023/07/08 07:07:34;;;;;;;3.92;2.75;;;;;;;;;;5019533;28;20138;-67
2023/07/08 07:10:00;;;;;;;4.20;3.03;;;;;;;;;;5012341;28;20041;-66
2023/07/08 07:12:26;;;;;;;5.82;3.38;;;;;;;;;;5015933;28;20030;-66
2023/07/08 07:14:52;;;;;;;6.18;3.65;;;;;;;;;;5012852;28;20057;-66
2023/07/08 07:17:22;;;;;;;3.50;2.97;;;;;;;;;;5020116;28;20033;-66
2023/07/08 07:19:49;;;;;;;4.13;2.67;;;;;;;;;;5013729;28;20029;-66
2023/07/08 07:22:15;;;;;;;3.63;2.70;;;;;;;;;;5008665;28;20117;-66
2023/07/08 07:24:40;;;;;;;4.43;3.00;;;;;;;;;;5018198;28;20104;-66
2023/07/08 07:27:07;;;;;;;4.32;3.30;;;;;;;;;;5016058;28;20135;-66
2023/07/08 07:29:48;;;;;;;4.63;3.08;;;;;;;;;;5012104;28;20513;-66
2023/07/08 07:32:14;;;;;;;4.30;2.80;;;;;;;;;;5002625;28;20021;-66
2023/07/08 07:34:40;;;;;;;4.80;3.58;;;;;;;;;;5001836;28;20044;-66
2023/07/08 07:37:10;;;;;;;5.40;3.20;;;;;;;;;;5002741;28;21037;-66
2023/07/08 07:39:35;;;;;;;3.28;2.90;;;;;;;;;;4999332;28;20402;-66
2023/07/08 07:42:00;;;;;;;5.15;3.50;;;;;;;;;;5005140;28;20033;-66
2023/07/08 07:44:26;;;;;;;5.70;3.42;;;;;;;;;;5009100;28;20085;-67
2023/07/08 07:46:53;;;;;;;3.97;2.50;;;;;;;;;;5012858;28;20709;-66
2023/07/08 07:49:19;;;;;;;3.75;3.15;;;;;;;;;;5009558;28;21776;-66
2023/07/08 07:51:45;;;;;;;5.45;3.40;;;;;;;;;;5010330;28;20105;-67
2023/07/08 07:54:10;;;;;;;7.97;3.25;;;;;;;;;;4993139;28;20742;-66
2023/07/08 07:56:35;;;;;;;5.15;3.47;;;;;;;;;;5013695;28;20083;-66
2023/07/08 07:59:02;;;;;;;4.13;2.83;;;;;;;;;;5012348;28;20052;-67
2023/07/08 08:01:27;;;;;;;4.82;2.92;;;;;;;;;;5011987;28;20072;-67
2023/07/08 08:03:52;;;;;;;5.80;3.28;;;;;;;;;;5001527;28;20053;-67
2023/07/08 08:06:18;;;;;;;5.78;3.10;;;;;;;;;;5009507;28;20038;-67
2023/07/08 08:08:45;;;;;;;5.63;2.90;;;;;;;;;;5009077;28;20522;-67
2023/07/08 08:11:10;;;;;;;6.20;3.05;;;;;;;;;;5017432;28;20022;-67
2023/07/08 08:13:36;;;;;;;4.95;3.45;;;;;;;;;;5009567;28;20036;-67
2023/07/08 08:16:02;;;;;;;4.15;2.90;;;;;;;;;;5008634;28;20462;-66
2023/07/08 08:18:27;;;;;;;4.45;2.60;;;;;;;;;;5012021;28;20037;-66
2023/07/08 08:20:53;;;;;;;5.10;3.20;;;;;;;;;;5006552;28;20084;-66
2023/07/08 08:23:18;;;;;;;4.78;2.90;;;;;;;;;;5009659;28;20034;-66
2023/07/08 08:25:43;;;;;;;5.18;2.80;;;;;;;;;;5003571;28;20026;-66
2023/07/08 08:28:09;;;;;;;4.15;3.30;;;;;;;;;;5014539;28;20109;-66
2023/07/08 08:30:34;;;;;;;5.95;3.63;;;;;;;;;;5013915;28;20095;-66
2023/07/08 08:33:00;;;;;;;3.50;2.60;;;;;;;;;;5012092;28;20025;-66
2023/07/08 08:35:26;;;;;;;3.80;3.08;;;;;;;;;;5007897;28;20021;-66
2023/07/08 08:37:53;;;;;;;6.70;3.53;;;;;;;;;;5009397;28;20038;-66
2023/07/08 08:40:19;;;;;;;5.07;3.40;;;;;;;;;;5016846;28;20106;-66
2023/07/08 08:42:53;;;;;;;4.32;2.92;;;;;;;;;;5012234;28;20026;-66
2023/07/08 08:45:21;;;;;;;4.95;3.08;;;;;;;;;;5007957;28;20041;-66
2023/07/08 08:47:54;;;;;;;4.38;2.97;;;;;;;;;;5003442;28;20056;-66
2023/07/08 08:50:47;;;;;;;3.90;2.97;;;;;;;;;;5007335;28;20080;-66
2023/07/08 08:53:16;;;;;;;4.78;3.30;;;;;;;;;;5005115;28;20065;-66
2023/07/08 08:55:42;;;;;;;4.30;3.03;;;;;;;;;;5001017;28;20038;-66
2023/07/08 08:58:32;;;;;;;3.88;3.20;;;;;;;;;;4998158;28;20461;-66
2023/07/08 09:01:01;;;;;;;8.10;3.67;;;;;;;;;;5007120;28;20109;-66
2023/07/08 09:03:53;;;;;;;4.80;3.35;;;;;;;;;;5004170;28;20096;-66
2023/07/08 09:06:28;;;;;;;4.03;3.08;;;;;;;;;;5003557;28;20029;-66
2023/07/08 09:08:57;;;;;;;5.43;3.10;;;;;;;;;;5002726;28;20026;-66
2023/07/08 09:11:49;;;;;;;3.83;2.40;;;;;;;;;;5010076;28;20022;-66
2023/07/08 09:14:24;;;;;;;5.32;3.47;;;;;;;;;;5004078;28;20072;-67
2023/07/08 09:17:06;;;;;;;4.05;3.28;;;;;;;;;;5002170;28;20026;-66
2023/07/08 09:19:37;;;;;;;4.03;3.00;;;;;;;;;;5000132;28;20557;-68
2023/07/08 09:22:10;;;;;;;4.35;3.10;;;;;;;;;;4999843;28;20026;-66
2023/07/08 09:24:51;;;;;;;4.60;3.30;;;;;;;;;;5004550;28;20026;-66
2023/07/08 09:27:17;;;;;;;4.95;3.45;;;;;;;;;;5003916;28;20033;-66
2023/07/08 09:29:42;;;;;;;4.63;3.40;;;;;;;;;;5003917;28;20037;-66
2023/07/08 09:32:16;;;;;;;3.83;2.78;;;;;;;;;;4999328;28;20026;-66
2023/07/08 09:34:54;;;;;;;4.53;3.78;;;;;;;;;;5004391;28;20026;-66
2023/07/08 09:37:34;;;;;;;5.05;3.40;;;;;;;;;;5005275;28;20025;-66
2023/07/08 09:40:14;;;;;;;5.07;3.17;;;;;;;;;;5005128;28;20199;-66
2023/07/08 09:42:41;;;;;;;4.38;3.15;;;;;;;;;;4994571;28;20044;-66
2023/07/08 09:45:17;;;;;;;5.05;3.63;;;;;;;;;;4995204;28;20049;-66
2023/07/08 09:47:45;;;;;;;4.18;2.83;;;;;;;;;;5000046;28;20173;-66
2023/07/08 09:50:24;;;;;;;4.20;3.33;;;;;;;;;;4996732;28;20022;-66
2023/07/08 09:52:54;;;;;;;5.50;3.08;;;;;;;;;;4994200;28;20022;-66
2023/07/08 09:55:19;;;;;;;5.70;3.00;;;;;;;;;;4997057;28;20025;-66
2023/07/08 09:57:48;;;;;;;6.53;3.28;;;;;;;;;;4998856;28;20521;-66
2023/07/08 10:00:16;;;;;;;3.78;3.00;;;;;;;;;;4996221;28;20076;-66
2023/07/08 10:02:58;;;;;;;5.50;3.70;;;;;;;;;;4999181;28;20043;-66
2023/07/08 10:05:28;;;;;;;3.78;3.05;;;;;;;;;;4997280;28;20056;-66
2023/07/08 10:07:55;;;;;;;;;;;;;;;;;;5001786;28;20018;-66
2023/07/08 10:10:31;;;;;;;4.97;3.47;;;;;;;;;;4999568;28;20360;-66
2023/07/08 10:13:00;;;;;;;7.88;3.60;;;;;;;;;;4998742;28;20053;-66
2023/07/08 10:15:47;;;;;;;4.95;2.85;;;;;;;;;;4992821;28;20021;-66
2023/07/08 10:18:18;;;;;;;4.90;3.10;;;;;;;;;;4998768;28;20034;-66
2023/07/08 10:21:06;;;;;;;5.00;3.28;;;;;;;;;;5000095;28;20112;-67
2023/07/08 10:23:44;;;;;;;3.10;2.22;;;;;;;;;;4996828;28;20730;-66
2023/07/08 10:26:24;;;;;;;6.78;3.38;;;;;;;;;;4990256;28;20072;-66
2023/07/08 10:28:49;;;;;;;5.07;3.35;;;;;;;;;;4997016;28;20830;-66
2023/07/08 10:31:33;;;;;;;5.22;3.50;;;;;;;;;;4998370;28;20038;-66
2023/07/08 10:34:01;;;;;;;4.18;2.92;;;;;;;;;;5000902;28;20052;-66
2023/07/08 10:36:27;;;;;;;3.58;3.08;;;;;;;;;;5000340;28;20049;-66
2023/07/08 10:39:10;;;;;;;4.90;3.17;;;;;;;;;;5003056;28;20379;-67
2023/07/08 10:42:02;;;;;;;4.03;3.20;;;;;;;;;;4993121;28;20030;-66
2023/07/08 10:44:50;;;;;;;5.60;3.35;;;;;;;;;;4991086;28;20033;-66
2023/07/08 10:47:27;;;;;;;5.93;3.00;;;;;;;;;;4963757;28;21175;-67
2023/07/08 10:49:55;;;;;;;4.22;3.13;;;;;;;;;;4997638;28;20114;-66
2023/07/08 10:52:40;;;;;;;5.13;3.25;;;;;;;;;;4999558;28;20026;-66
2023/07/08 10:55:13;;;;;;;4.65;2.80;;;;;;;;;;5005761;28;20137;-66
2023/07/08 10:58:14;;;;;;;4.85;2.95;;;;;;;;;;5004986;28;20045;-66
2023/07/08 11:01:08;;;;;;;4.43;3.20;;;;;;;;;;5004886;28;20032;-66
2023/07/08 11:03:52;;;;;;;4.68;3.03;;;;;;;;;;5000148;28;20041;-66
2023/07/08 11:06:42;;;;;;;4.90;3.33;;;;;;;;;;4998663;28;20135;-66
2023/07/08 11:09:10;;;;;;;4.20;3.13;;;;;;;;;;5003798;28;20033;-66
2023/07/08 11:11:39;;;;;;;3.97;2.83;;;;;;;;;;5014963;28;20049;-66
2023/07/08 11:14:13;;;;;;;4.90;3.33;;;;;;;;;;5007089;28;20112;-67
2023/07/08 11:16:47;;;;;;;4.47;3.58;;;;;;;;;;5009673;28;20054;-67
2023/07/08 11:19:19;;;;;;;4.13;3.08;;;;;;;;;;5002312;28;20036;-66
2023/07/08 11:21:52;;;;;;;3.47;2.20;;;;;;;;;;5002601;28;20132;-66
2023/07/08 11:24:42;;;;;;;4.70;3.30;;;;;;;;;;5007412;28;20025;-66
2023/07/08 11:27:14;;;;;;;5.95;3.22;;;;;;;;;;5003396;28;20120;-66
2023/07/08 11:29:53;;;;;;;4.10;3.20;;;;;;;;;;5000149;28;20033;-66
2023/07/08 11:32:21;;;;;;;6.00;2.97;;;;;;;;;;5004880;28;20045;-66
2023/07/08 11:34:50;;;;;;;5.28;3.00;;;;;;;;;;5003953;28;20033;-66
2023/07/08 11:37:18;;;;;;;4.03;2.63;;;;;;;;;;5000873;28;20466;-66
2023/07/08 11:39:55;;;;;;;4.55;3.20;;;;;;;;;;4999132;28;20036;-66
2023/07/08 11:42:31;;;;;;;6.13;3.25;;;;;;;;;;5004537;28;20029;-66
2023/07/08 11:44:58;;;;;;;5.50;3.22;;;;;;;;;;5002823;28;20041;-66
2023/07/08 11:47:40;;;;;;;6.03;2.95;;;;;;;;;;5004991;28;20025;-66
2023/07/08 11:50:35;;;;;;;4.85;3.30;;;;;;;;;;5005124;28;20026;-66
2023/07/08 11:53:06;;;;;;;4.22;3.50;;;;;;;;;;5004851;28;20045;-66
2023/07/08 11:55:44;;;;;;;3.53;2.60;;;;;;;;;;4999616;28;20045;-66
2023/07/08 11:58:47;;;;;;;4.28;3.53;;;;;;;;;;4999141;28;20030;-67
2023/07/08 12:01:12;;;;;;;4.50;3.30;;;;;;;;;;4992814;28;20091;-66
2023/07/08 12:03:46;;;;;;;3.70;2.60;;;;;;;;;;5004528;28;20033;-66
2023/07/08 12:06:27;;;;;;;4.00;2.92;;;;;;;;;;5007239;28;20045;-66
2023/07/08 12:08:54;;;;;;;4.40;3.10;;;;;;;;;;5000789;28;20040;-67
2023/07/08 12:11:32;;;;;;;4.20;3.08;;;;;;;;;;5004097;28;20030;-67
2023/07/08 12:14:03;;;;;;;3.85;2.72;;;;;;;;;;5005906;28;20049;-67
2023/07/08 12:16:31;;;;;;;6.68;3.45;;;;;;;;;;5013780;28;20030;-67
2023/07/08 12:18:58;;;;;;;3.75;2.92;;;;;;;;;;5007143;28;20046;-67
2023/07/08 12:21:26;;;;;;;5.40;3.22;;;;;;;;;;5015206;28;20075;-67
2023/07/08 12:23:52;;;;;;;4.78;3.15;;;;;;;;;;5001163;28;20030;-67
2023/07/08 12:26:18;;;;;;;4.75;2.95;;;;;;;;;;5006814;28;20033;-67
2023/07/08 12:28:44;;;;;;;3.67;3.10;;;;;;;;;;5008781;28;20501;-67
2023/07/08 12:31:21;;;;;;;4.22;3.33;;;;;;;;;;5011762;28;20075;-67
2023/07/08 12:33:48;;;;;;;3.97;3.05;;;;;;;;;;5005989;28;20032;-67
2023/07/08 12:36:27;;;;;;;5.18;3.25;;;;;;;;;;5011897;28;20524;-67
2023/07/08 12:38:56;;;;;;;4.40;3.25;;;;;;;;;;5010887;28;20061;-67
2023/07/08 12:41:25;;;;;;;3.67;2.90;;;;;;;;;;5001939;28;20025;-67
2023/07/08 12:43:52;;;;;;;4.15;3.10;;;;;;;;;;5004389;28;20064;-67
2023/07/08 12:46:20;;;;;;;3.55;2.83;;;;;;;;;;5002091;28;20037;-67
2023/07/08 12:48:46;;;;;;;3.95;3.13;;;;;;;;;;5002743;28;20406;-67
2023/07/08 12:51:21;;;;;;;3.90;3.00;;;;;;;;;;5004360;28;20033;-70
2023/07/08 12:53:47;;;;;;;4.57;3.22;;;;;;;;;;5003574;28;20025;-67
2023/07/08 12:56:13;;;;;;;5.63;3.22;;;;;;;;;;5007617;28;20720;-67
2023/07/08 12:58:44;;;;;;;4.22;3.10;;;;;;;;;;5006643;28;20058;-67
2023/07/08 13:01:19;;;;;;;4.38;3.35;;;;;;;;;;5007726;28;20561;-67
2023/07/08 13:03:50;;;;;;;4.88;3.05;;;;;;;;;;5002250;28;20029;-67
2023/07/08 13:06:21;;;;;;;4.80;3.05;;;;;;;;;;4998733;28;20522;-67
2023/07/08 13:08:47;;;;;;;4.55;3.25;;;;;;;;;;4999015;28;20033;-67
2023/07/08 13:11:18;;;;;;;4.65;3.30;;;;;;;;;;5001818;28;20455;-67
2023/07/08 13:13:56;;;;;;;3.90;2.90;;;;;;;;;;4999113;28;20506;-67
2023/07/08 13:16:26;;;;;;;5.18;3.72;;;;;;;;;;5002912;28;20061;-67
2023/07/08 13:18:51;;;;;;;4.30;2.70;;;;;;;;;;4999223;28;20025;-67
2023/07/08 13:21:17;;;;;;;4.18;3.22;;;;;;;;;;5000770;28;20776;-66
2023/07/08 13:23:43;;;;;;;5.63;3.83;;;;;;;;;;5009956;28;20022;-66
2023/07/08 13:26:17;;;;;;;4.40;3.25;;;;;;;;;;4996860;28;20529;-66
2023/07/08 13:28:45;;;;;;;4.43;3.63;;;;;;;;;;4998460;28;20052;-66
2023/07/08 13:31:24;;;;;;;2.90;2.40;;;;;;;;;;4999092;28;20030;-66
2023/07/08 13:33:54;;;;;;;4.45;3.60;;;;;;;;;;5005215;28;20030;-66
2023/07/08 13:36:23;;;;;;;4.20;3.17;;;;;;;;;;5003565;28;20083;-67
2023/07/08 13:38:50;;;;;;;4.15;3.20;;;;;;;;;;5000298;28;20569;-67
2023/07/08 13:41:21;;;;;;;5.65;3.33;;;;;;;;;;5000097;28;20026;-67
2023/07/08 13:43:48;;;;;;;4.03;3.13;;;;;;;;;;5007165;28;20105;-66
2023/07/08 13:46:36;;;;;;;4.13;3.15;;;;;;;;;;5003209;28;20036;-66
2023/07/08 13:49:33;;;;;;;4.40;3.35;;;;;;;;;;4998586;28;20025;-66
2023/07/08 13:52:19;;;;;;;4.13;3.10;;;;;;;;;;5000501;28;20042;-66
2023/07/08 13:54:49;;;;;;;4.35;3.13;;;;;;;;;;5001766;28;20026;-67
2023/07/08 13:57:20;;;;;;;3.88;3.03;;;;;;;;;;5001848;28;20102;-67
2023/07/08 13:59:45;;;;;;;2.90;2.15;;;;;;;;;;4996696;28;20170;-66
2023/07/08 14:02:24;;;;;;;4.40;3.55;;;;;;;;;;5001256;28;20644;-67
2023/07/08 14:04:52;;;;;;;5.25;4.07;;;;;;;;;;4998716;28;20544;-66
2023/07/08 14:07:20;;;;;;;4.43;3.45;;;;;;;;;;5004254;28;20042;-66
2023/07/08 14:09:46;;;;;;;4.10;3.40;;;;;;;;;;4994013;28;20080;-66
2023/07/08 14:12:11;;;;;;;3.75;3.15;;;;;;;;;;5005734;28;20131;-66
2023/07/08 14:14:37;;;;;;;4.38;3.20;;;;;;;;;;5019864;28;20400;-66
2023/07/08 14:17:02;;;;;;;3.53;3.10;;;;;;;;;;5015008;28;20041;-66
2023/07/08 14:19:30;;;;;;;3.88;3.30;;;;;;;;;;5005524;28;20498;-66
2023/07/08 14:22:07;;;;;;;4.05;3.30;;;;;;;;;;5005756;28;20378;-66
2023/07/08 14:24:33;;;;;;;5.80;4.07;;;;;;;;;;5001114;28;20025;-66
2023/07/08 14:26:59;;;;;;;6.15;4.75;;;;;;;;;;4999548;28;20802;-66
2023/07/08 14:29:24;;;;;;;8.60;5.50;;;;;;;;;;5004153;28;20397;-66
2023/07/08 14:31:50;;;;;;;12.95;7.25;;;;;;;;;;5010685;28;20095;-66
2023/07/08 14:34:23;;;;;;;9.13;7.72;;;;;;;;;;5015975;28;20030;-66
2023/07/08 14:36:48;;;;;;;4.53;3.40;;;;;;;;;;5012716;28;20025;-67
2023/07/08 14:39:15;;;;;;;3.88;3.20;;;;;;;;;;5013578;28;20030;-66
2023/07/08 14:41:42;;;;;;;6.97;6.32;;;;;;;;;;5011019;28;20370;-66
2023/07/08 14:44:35;;;;;;;9.52;8.63;;;;;;;;;;5005425;28;20429;-66
2023/07/08 14:47:01;;;;;;;24.60;22.40;;;;;;;;;;5000030;28;20058;-66
2023/07/08 14:49:27;;;;;;;20.98;19.25;;;;;;;;;;5009899;28;20112;-66
2023/07/08 14:51:53;;;;;;;5.20;3.38;;;;;;;;;;5013581;28;20029;-67
2023/07/08 14:54:20;;;;;;;4.40;3.30;;;;;;;;;;5020562;28;20031;-66
2023/07/08 14:56:47;;;;;;;5.03;3.58;;;;;;;;;;5029225;23;20073;-66